createdAt,value
2022-10-23T00:01:28.351Z,43.03
2022-10-23T00:04:08.159Z,37.80
2022-10-23T00:06:36.711Z,44.28
2022-10-23T00:09:05.695Z,34.70
2022-10-23T00:11:34.410Z,37.78
2022-10-23T00:14:03.018Z,39.30
2022-10-23T00:16:30.245Z,40.70
2022-10-23T00:18:57.426Z,40.67
2022-10-23T00:21:25.054Z,49.40
2022-10-23T00:23:52.133Z,46.63
2022-10-23T00:26:18.938Z,47.22
2022-10-23T00:28:50.171Z,45.13
2022-10-23T00:31:18.903Z,48.38
2022-10-23T00:33:46.124Z,50.20
2022-10-23T00:36:15.428Z,44.88
2022-10-23T00:38:42.400Z,46.17
2022-10-23T00:41:14.082Z,49.25
2022-10-23T00:44:02.429Z,41.95
2022-10-23T00:46:29.593Z,47.13
2022-10-23T00:48:57.416Z,41.60
2022-10-23T00:51:27.767Z,43.00
2022-10-23T00:54:06.562Z,36.55
2022-10-23T00:56:42.522Z,35.67
2022-10-23T00:59:09.316Z,32.38
2022-10-23T01:01:36.998Z,31.85
2022-10-23T01:04:05.915Z,31.27
2022-10-23T01:06:37.937Z,31.70
2022-10-23T01:09:25.538Z,34.25
2022-10-23T01:12:08.558Z,34.50
2022-10-23T01:14:46.475Z,53.65
2022-10-23T01:17:23.530Z,38.78
2022-10-23T01:20:28.280Z,41.35
2022-10-23T01:23:32.880Z,41.42
2022-10-23T01:26:06.070Z,48.15
2022-10-23T01:28:40.495Z,40.90
2022-10-23T01:31:14.509Z,32.97
2022-10-23T01:34:00.877Z,37.75
2022-10-23T01:36:30.693Z,39.25
2022-10-23T01:39:07.779Z,41.40
2022-10-23T01:41:42.647Z,34.47
2022-10-23T01:44:22.109Z,38.60
2022-10-23T01:46:52.187Z,42.00
2022-10-23T01:49:20.845Z,43.95
2022-10-23T01:51:53.043Z,95.45
2022-10-23T01:54:29.532Z,35.90
2022-10-23T01:56:59.062Z,75.03
2022-10-23T01:59:32.919Z,80.35
2022-10-23T02:02:01.645Z,37.35
2022-10-23T02:04:34.417Z,128.50
2022-10-23T02:07:01.275Z,31.98
2022-10-23T02:09:28.816Z,48.17
2022-10-23T02:12:06.928Z,35.58
2022-10-23T02:15:23.096Z,33.67
2022-10-23T02:17:59.303Z,29.30
2022-10-23T02:20:45.798Z,38.85
2022-10-23T02:23:22.695Z,35.53
2022-10-23T02:25:55.482Z,32.90
2022-10-23T02:28:28.364Z,31.13
2022-10-23T02:30:58.223Z,39.35
2022-10-23T02:33:27.429Z,60.28
2022-10-23T02:35:54.354Z,35.60
2022-10-23T02:38:47.564Z,36.25
2022-10-23T02:41:44.178Z,45.05
2022-10-23T02:44:28.407Z,40.28
2022-10-23T02:47:08.624Z,28.52
2022-10-23T02:49:39.315Z,31.38
2022-10-23T02:52:38.301Z,31.90
2022-10-23T02:55:28.984Z,29.05
2022-10-23T02:58:06.079Z,27.73
2022-10-23T03:00:36.063Z,31.73
2022-10-23T03:03:10.232Z,33.00
2022-10-23T03:05:40.153Z,33.53
2022-10-23T03:08:09.526Z,33.78
2022-10-23T03:10:37.204Z,28.38
2022-10-23T03:13:04.214Z,30.83
2022-10-23T03:15:31.330Z,32.15
2022-10-23T03:17:58.193Z,36.95
2022-10-23T03:20:25.025Z,32.75
2022-10-23T03:22:51.733Z,48.80
2022-10-23T03:25:18.413Z,35.03
2022-10-23T03:27:45.648Z,31.63
2022-10-23T03:30:14.113Z,29.08
2022-10-23T03:32:41.318Z,40.25
2022-10-23T03:35:08.655Z,41.88
2022-10-23T03:37:35.314Z,40.05
2022-10-23T03:40:02.148Z,50.95
2022-10-23T03:42:28.802Z,47.58
2022-10-23T03:44:55.413Z,80.18
2022-10-23T03:47:22.607Z,60.38
2022-10-23T03:49:49.289Z,144.80
2022-10-23T03:52:17.029Z,108.35
2022-10-23T03:54:43.790Z,146.88
2022-10-23T03:57:10.515Z,61.28
2022-10-23T03:59:37.510Z,31.85
2022-10-23T04:02:04.354Z,61.85
2022-10-23T04:04:31.143Z,45.20
2022-10-23T04:06:57.786Z,34.47
2022-10-23T04:09:24.561Z,67.10
2022-10-23T04:11:51.226Z,43.40
2022-10-23T04:14:17.841Z,38.63
2022-10-23T04:16:44.485Z,32.72
2022-10-23T04:19:11.275Z,46.55
2022-10-23T04:21:37.979Z,46.67
2022-10-23T04:24:05.314Z,38.05
2022-10-23T04:26:32.035Z,28.83
2022-10-23T04:28:59.014Z,36.70
2022-10-23T04:31:26.375Z,31.17
2022-10-23T04:33:54.073Z,27.77
2022-10-23T04:36:20.779Z,30.73
2022-10-23T04:38:48.674Z,43.53
2022-10-23T04:41:15.462Z,31.13
2022-10-23T04:43:43.005Z,31.10
2022-10-23T04:46:09.946Z,32.83
2022-10-23T04:48:36.650Z,32.53
2022-10-23T04:51:05.640Z,45.65
2022-10-23T04:53:33.160Z,63.17
2022-10-23T04:56:00.504Z,51.40
2022-10-23T04:58:28.731Z,62.65
2022-10-23T05:00:56.287Z,78.78
2022-10-23T05:03:24.042Z,44.53
2022-10-23T05:05:55.541Z,80.40
2022-10-23T05:08:23.270Z,112.75
2022-10-23T05:10:50.226Z,61.88
2022-10-23T05:13:20.136Z,81.55
2022-10-23T05:15:51.355Z,51.13
2022-10-23T05:18:26.526Z,63.63
2022-10-23T05:20:59.343Z,119.55
2022-10-23T05:23:28.101Z,43.28
2022-10-23T05:25:54.717Z,91.57
2022-10-23T05:28:21.309Z,65.93
2022-10-23T05:30:48.665Z,64.93
2022-10-23T05:33:15.366Z,79.05
2022-10-23T05:35:43.734Z,42.85
2022-10-23T05:38:11.648Z,61.80
2022-10-23T05:43:06.730Z,66.85
2022-10-23T05:45:33.791Z,52.97
2022-10-23T05:48:10.930Z,54.92
2022-10-23T05:50:47.862Z,56.10
2022-10-23T05:53:14.701Z,73.43
2022-10-23T05:55:42.043Z,52.15
2022-10-23T05:58:09.140Z,51.70
2022-10-23T06:00:35.945Z,50.13
2022-10-23T06:03:02.923Z,52.45
2022-10-23T06:05:29.721Z,74.18
2022-10-23T06:08:00.116Z,62.05
2022-10-23T06:10:28.148Z,61.40
2022-10-23T06:12:54.930Z,45.92
2022-10-23T06:15:21.851Z,50.47
2022-10-23T06:17:48.833Z,49.25
2022-10-23T06:20:15.741Z,43.72
2022-10-23T06:22:42.617Z,41.75
2022-10-23T06:25:09.591Z,44.88
2022-10-23T06:27:36.680Z,43.83
2022-10-23T06:30:04.059Z,47.95
2022-10-23T06:32:34.407Z,52.00
2022-10-23T06:35:01.053Z,52.05
2022-10-23T06:37:28.110Z,49.50
2022-10-23T06:39:55.070Z,46.38
2022-10-23T06:42:22.033Z,49.55
2022-10-23T06:44:48.882Z,42.13
2022-10-23T06:47:18.671Z,44.92
2022-10-23T06:49:45.350Z,52.03
2022-10-23T06:52:18.401Z,48.13
2022-10-23T06:54:55.292Z,45.53
2022-10-23T06:57:21.882Z,46.10
2022-10-23T06:59:48.461Z,44.97
2022-10-23T07:02:15.719Z,42.70
2022-10-23T07:04:42.410Z,44.88
2022-10-23T07:07:09.096Z,50.78
2022-10-23T07:09:37.042Z,44.13
2022-10-23T07:12:04.022Z,55.38
2022-10-23T07:14:32.189Z,48.58
2022-10-23T07:16:59.238Z,46.60
2022-10-23T07:19:25.968Z,44.20
2022-10-23T07:21:52.696Z,38.25
2022-10-23T07:24:19.390Z,38.45
2022-10-23T07:26:46.081Z,38.83
2022-10-23T07:29:13.192Z,41.28
2022-10-23T07:31:39.825Z,34.55
2022-10-23T07:34:07.270Z,28.48
2022-10-23T07:36:35.604Z,29.73
2022-10-23T07:39:02.378Z,28.42
2022-10-23T07:41:34.268Z,23.02
2022-10-23T07:44:00.850Z,25.48
2022-10-23T07:46:27.935Z,25.20
2022-10-23T07:48:54.867Z,23.55
2022-10-23T07:51:21.565Z,21.55
2022-10-23T07:53:49.632Z,23.30
2022-10-23T07:56:20.829Z,21.40
2022-10-23T07:58:48.497Z,18.38
2022-10-23T08:01:24.406Z,20.48
2022-10-23T08:03:51.111Z,19.38
2022-10-23T08:06:17.722Z,16.85
2022-10-23T08:11:14.879Z,16.85
2022-10-23T08:13:41.926Z,14.98
2022-10-23T08:16:08.612Z,13.55
2022-10-23T08:18:35.338Z,11.77
2022-10-23T08:21:03.827Z,14.85
2022-10-23T08:23:30.481Z,13.27
2022-10-23T08:26:00.110Z,11.52
2022-10-23T08:28:28.489Z,13.80
2022-10-23T08:30:56.307Z,15.38
2022-10-23T08:33:23.169Z,11.70
2022-10-23T08:35:50.740Z,11.93
2022-10-23T08:38:17.734Z,10.68
2022-10-23T08:40:47.602Z,10.50
2022-10-23T08:43:39.147Z,12.18
2022-10-23T08:46:10.441Z,10.00
2022-10-23T08:48:52.768Z,9.77
2022-10-23T08:51:31.821Z,7.70
2022-10-23T08:54:07.867Z,9.27
2022-10-23T08:56:38.020Z,8.50
2022-10-23T08:59:26.287Z,7.72
2022-10-23T09:02:03.440Z,8.13
2022-10-23T09:04:30.555Z,8.27
2022-10-23T09:07:03.157Z,8.15
2022-10-23T09:09:55.722Z,6.82
2022-10-23T09:12:24.585Z,6.15
2022-10-23T09:15:20.018Z,5.00
2022-10-23T09:17:47.765Z,5.10
2022-10-23T09:20:27.801Z,5.28
2022-10-23T09:23:00.254Z,4.13
2022-10-23T09:25:34.909Z,4.25
2022-10-23T09:28:05.233Z,4.13
2022-10-23T09:30:41.450Z,6.00
2022-10-23T09:33:22.355Z,5.78
2022-10-23T09:36:25.909Z,4.63
2022-10-23T09:39:18.000Z,5.82
2022-10-23T09:41:50.883Z,4.05
2022-10-23T09:44:29.300Z,4.97
2022-10-23T09:47:00.970Z,3.95
2022-10-23T09:49:35.118Z,5.47
2022-10-23T09:52:15.619Z,5.82
2022-10-23T09:55:09.947Z,3.78
2022-10-23T09:57:45.226Z,5.38
2022-10-23T10:00:26.568Z,4.15
2022-10-23T10:03:05.470Z,4.75
2022-10-23T10:05:38.428Z,3.60
2022-10-23T10:08:20.882Z,4.38
2022-10-23T10:10:58.058Z,5.30
2022-10-23T10:13:34.154Z,4.20
2022-10-23T10:16:21.713Z,3.60
2022-10-23T10:19:11.662Z,4.78
2022-10-23T10:21:56.616Z,6.03
2022-10-23T10:24:49.265Z,6.78
2022-10-23T10:28:03.635Z,7.93
2022-10-23T10:30:49.638Z,14.32
2022-10-23T10:33:27.230Z,8.25
2022-10-23T10:36:33.427Z,11.50
2022-10-23T10:39:08.945Z,6.32
2022-10-23T10:42:14.759Z,7.93
2022-10-23T10:45:08.032Z,3.30
2022-10-23T10:47:59.636Z,3.25
2022-10-23T10:50:59.138Z,2.92
2022-10-23T10:53:56.813Z,3.22
2022-10-23T10:56:29.843Z,5.28
2022-10-23T10:59:01.713Z,3.60
2022-10-23T11:01:37.675Z,4.03
2022-10-23T11:04:23.266Z,6.25
2022-10-23T11:06:54.012Z,6.32
2022-10-23T11:09:24.357Z,5.65
2022-10-23T11:11:54.671Z,7.00
2022-10-23T11:14:24.634Z,3.20
2022-10-23T11:17:13.899Z,4.82
2022-10-23T11:20:01.633Z,3.90
2022-10-23T11:22:34.186Z,3.22
2022-10-23T11:25:12.249Z,4.50
2022-10-23T11:28:10.387Z,4.78
2022-10-23T11:31:19.107Z,8.43
2022-10-23T11:34:02.261Z,5.30
2022-10-23T11:36:34.948Z,4.93
2022-10-23T11:39:16.380Z,3.22
2022-10-23T11:41:59.304Z,5.55
2022-10-23T11:44:38.500Z,4.40
2022-10-23T11:47:38.901Z,4.25
2022-10-23T11:50:09.003Z,3.65
2022-10-23T11:53:17.090Z,3.53
2022-10-23T11:56:06.633Z,3.50
2022-10-23T11:58:52.216Z,4.47
2022-10-23T12:01:41.400Z,4.07
2022-10-23T12:04:14.301Z,4.57
2022-10-23T12:06:55.508Z,4.10
2022-10-23T12:09:28.054Z,7.25
2022-10-23T12:12:10.036Z,7.45
2022-10-23T12:14:49.475Z,3.83
2022-10-23T12:17:35.872Z,3.15
2022-10-23T12:20:08.705Z,5.40
2022-10-23T12:22:41.109Z,3.30
2022-10-23T12:25:23.240Z,4.68
2022-10-23T12:27:49.956Z,6.05
2022-10-23T12:30:21.440Z,3.95
2022-10-23T12:33:04.304Z,5.82
2022-10-23T12:36:01.903Z,4.13
2022-10-23T12:38:33.994Z,4.05
2022-10-23T12:41:25.641Z,5.20
2022-10-23T12:43:58.043Z,7.10
2022-10-23T12:46:32.714Z,3.45
2022-10-23T12:49:12.617Z,6.78
2022-10-23T12:51:39.367Z,5.22
2022-10-23T12:54:16.048Z,6.07
2022-10-23T12:56:44.272Z,5.28
2022-10-23T12:59:17.803Z,4.63
2022-10-23T13:01:47.971Z,4.10
2022-10-23T13:04:30.871Z,4.03
2022-10-23T13:07:08.593Z,3.58
2022-10-23T13:09:44.838Z,7.28
2022-10-23T13:12:24.369Z,6.63
2022-10-23T13:15:03.358Z,5.35
2022-10-23T13:17:45.185Z,3.42
2022-10-23T13:20:17.951Z,3.78
2022-10-23T13:22:47.009Z,5.95
2022-10-23T13:25:25.558Z,4.43
2022-10-23T13:28:08.345Z,6.65
2022-10-23T13:30:42.662Z,6.25
2022-10-23T13:33:21.234Z,4.28
2022-10-23T13:36:03.603Z,2.85
2022-10-23T13:38:41.565Z,4.40
2022-10-23T13:41:20.115Z,5.68
2022-10-23T13:43:47.775Z,2.75
2022-10-23T13:46:16.317Z,4.70
2022-10-23T13:48:43.343Z,3.80
2022-10-23T13:51:19.819Z,5.05
2022-10-23T13:53:46.715Z,5.88
2022-10-23T13:56:14.560Z,4.45
2022-10-23T13:58:42.045Z,3.90
2022-10-23T14:01:30.103Z,4.32
2022-10-23T14:03:58.114Z,4.55
2022-10-23T14:06:25.698Z,3.55
2022-10-23T14:08:52.797Z,5.75
2022-10-23T14:11:20.756Z,5.55
2022-10-23T14:13:48.138Z,4.63
2022-10-23T14:16:17.424Z,5.13
2022-10-23T14:18:44.922Z,5.93
2022-10-23T14:21:14.053Z,4.25
2022-10-23T14:23:40.753Z,3.38
2022-10-23T14:26:10.143Z,4.85
2022-10-23T14:28:37.509Z,3.90
2022-10-23T14:31:05.611Z,3.38
2022-10-23T14:33:32.447Z,5.15
2022-10-23T14:35:59.099Z,4.18
2022-10-23T14:38:25.930Z,3.72
2022-10-23T14:40:52.556Z,5.43
2022-10-23T14:43:19.160Z,5.10
2022-10-23T14:45:45.804Z,4.82
2022-10-23T14:48:14.017Z,5.55
2022-10-23T14:50:46.214Z,7.20
2022-10-23T14:53:13.732Z,3.55
2022-10-23T14:55:40.342Z,3.35
2022-10-23T14:58:07.185Z,3.70
2022-10-23T15:00:33.932Z,4.78
2022-10-23T15:03:00.606Z,3.30
2022-10-23T15:05:27.313Z,4.43
2022-10-23T15:07:55.283Z,2.78
2022-10-23T15:10:21.882Z,3.30
2022-10-23T15:12:49.033Z,2.75
2022-10-23T15:15:15.682Z,4.85
2022-10-23T15:17:42.504Z,4.05
2022-10-23T15:20:09.753Z,6.32
2022-10-23T15:22:36.341Z,3.55
2022-10-23T15:25:03.049Z,5.28
2022-10-23T15:27:29.836Z,5.57
2022-10-23T15:29:56.405Z,4.30
2022-10-23T15:32:23.195Z,4.75
2022-10-23T15:34:50.234Z,4.18
2022-10-23T15:37:16.810Z,4.55
2022-10-23T15:39:44.293Z,5.05
2022-10-23T15:42:11.182Z,4.57
2022-10-23T15:44:40.192Z,4.47
2022-10-23T15:47:07.326Z,4.57
2022-10-23T15:49:34.418Z,3.30
2022-10-23T15:52:02.543Z,3.40
2022-10-23T15:54:32.721Z,7.45
2022-10-23T15:57:00.944Z,2.75
2022-10-23T15:59:29.636Z,3.38
2022-10-23T16:01:56.580Z,4.97
2022-10-23T16:04:24.420Z,5.30
2022-10-23T16:06:52.579Z,5.55
2022-10-23T16:09:20.387Z,3.30
2022-10-23T16:11:47.579Z,6.15
2022-10-23T16:14:18.101Z,5.80
2022-10-23T16:16:46.396Z,3.25
2022-10-23T16:19:13.337Z,4.78
2022-10-23T16:21:41.497Z,2.42
2022-10-23T16:24:08.934Z,5.28
2022-10-23T16:26:37.923Z,4.28
2022-10-23T16:29:09.564Z,3.35
2022-10-23T16:31:36.489Z,3.83
2022-10-23T16:34:04.818Z,7.40
2022-10-23T16:36:39.743Z,3.70
2022-10-23T16:39:09.608Z,3.92
2022-10-23T16:41:37.660Z,3.85
2022-10-23T16:44:04.848Z,3.05
2022-10-23T16:46:31.881Z,5.85
2022-10-23T16:49:00.424Z,7.15
2022-10-23T16:51:27.531Z,5.63
2022-10-23T16:53:55.809Z,3.90
2022-10-23T16:56:28.517Z,5.63
2022-10-23T16:59:00.607Z,6.28
2022-10-23T17:01:30.722Z,4.95
2022-10-23T17:03:57.983Z,3.20
2022-10-23T17:06:28.858Z,3.72
2022-10-23T17:08:56.603Z,3.60
2022-10-23T17:14:10.142Z,2.97
2022-10-23T17:16:46.301Z,3.28
2022-10-23T17:20:01.506Z,5.90
2022-10-23T17:22:35.648Z,5.25
2022-10-23T17:25:03.105Z,4.32
2022-10-23T17:27:33.314Z,4.32
2022-10-23T17:30:01.783Z,5.13
2022-10-23T17:32:32.161Z,4.18
2022-10-23T17:35:02.922Z,5.40
2022-10-23T17:37:35.281Z,5.28
2022-10-23T17:40:15.390Z,5.72
2022-10-23T17:45:26.005Z,5.15
2022-10-23T17:48:04.700Z,4.57
2022-10-23T17:50:32.136Z,4.88
2022-10-23T17:56:15.763Z,4.55
2022-10-23T17:58:43.419Z,2.97
2022-10-23T18:01:23.358Z,4.93
2022-10-23T18:03:56.624Z,4.30
2022-10-23T18:06:49.588Z,6.82
2022-10-23T18:09:17.007Z,4.38
2022-10-23T18:11:48.109Z,5.50
2022-10-23T18:14:19.995Z,4.40
2022-10-23T18:16:50.020Z,7.32
2022-10-23T18:19:28.181Z,5.18
2022-10-23T18:21:55.983Z,6.43
2022-10-23T18:27:21.478Z,5.68
2022-10-23T18:29:48.645Z,4.75
2022-10-23T18:32:18.069Z,3.42
2022-10-23T18:34:47.166Z,4.25
2022-10-23T18:37:19.219Z,5.03
2022-10-23T18:39:49.693Z,5.55
2022-10-23T18:42:17.832Z,4.35
2022-10-23T18:44:50.323Z,4.63
2022-10-23T18:47:17.475Z,3.67
2022-10-23T18:49:45.690Z,3.28
2022-10-23T18:52:12.674Z,6.90
2022-10-23T18:54:39.816Z,5.95
2022-10-23T18:57:06.644Z,4.38
2022-10-23T18:59:33.370Z,3.08
2022-10-23T19:02:00.463Z,5.07
2022-10-23T19:04:27.360Z,3.85
2022-10-23T19:06:54.323Z,3.85
2022-10-23T19:09:21.240Z,2.65
2022-10-23T19:11:48.317Z,3.10
2022-10-23T19:14:15.243Z,4.43
2022-10-23T19:17:04.198Z,4.40
2022-10-23T19:19:36.423Z,5.80
2022-10-23T19:22:04.924Z,4.40
2022-10-23T19:24:36.633Z,4.68
2022-10-23T19:27:04.588Z,3.70
2022-10-23T19:29:33.490Z,3.90
2022-10-23T19:32:11.828Z,6.43
2022-10-23T19:34:39.787Z,5.82
2022-10-23T19:37:11.482Z,4.38
2022-10-23T19:39:41.158Z,4.95
2022-10-23T19:42:09.576Z,5.82
2022-10-23T19:44:37.311Z,3.10
2022-10-23T19:47:11.723Z,2.42
2022-10-23T19:49:38.593Z,5.18
2022-10-23T19:52:05.843Z,3.83
2022-10-23T19:54:36.073Z,3.30
2022-10-23T19:57:03.093Z,2.42
2022-10-23T19:59:29.846Z,3.40
2022-10-23T20:01:56.993Z,6.10
2022-10-23T20:04:24.713Z,3.88
2022-10-23T20:06:51.653Z,6.20
2022-10-23T20:09:18.315Z,4.30
2022-10-23T20:11:45.602Z,3.25
2022-10-23T20:14:13.188Z,4.30
2022-10-23T20:16:40.567Z,4.85
2022-10-23T20:19:10.315Z,3.30
2022-10-23T20:21:39.127Z,3.15
2022-10-23T20:24:06.823Z,4.93
2022-10-23T20:26:34.124Z,3.67
2022-10-23T20:29:01.964Z,4.85
2022-10-23T20:31:29.909Z,4.15
2022-10-23T20:33:57.124Z,3.03
2022-10-23T20:36:41.147Z,2.58
2022-10-23T20:39:14.072Z,3.15
2022-10-23T20:41:42.034Z,5.00
2022-10-23T20:44:11.985Z,5.15
2022-10-23T20:46:39.464Z,2.83
2022-10-23T20:51:36.247Z,3.20
2022-10-23T20:54:03.801Z,2.35
2022-10-23T20:56:33.221Z,5.05
2022-10-23T20:59:01.744Z,5.72
2022-10-23T21:01:30.461Z,2.97
2022-10-23T21:03:59.179Z,3.88
2022-10-23T21:06:33.955Z,4.93
2022-10-23T21:09:07.685Z,2.70
2022-10-23T21:11:35.738Z,3.65
2022-10-23T21:14:03.650Z,3.92
2022-10-23T21:16:36.504Z,4.90
2022-10-23T21:19:04.235Z,6.07
2022-10-23T21:21:33.198Z,3.08
2022-10-23T21:24:01.106Z,3.42
2022-10-23T21:26:29.494Z,5.05
2022-10-23T21:29:16.887Z,4.10
2022-10-23T21:31:42.685Z,6.57
2022-10-23T21:37:00.222Z,3.47
2022-10-23T21:39:28.469Z,3.67
2022-10-23T21:41:55.159Z,3.45
2022-10-23T21:44:21.804Z,4.20
2022-10-23T21:46:48.550Z,3.72
2022-10-23T21:49:15.227Z,5.30
2022-10-23T21:51:41.773Z,3.78
2022-10-23T21:54:12.396Z,3.40
2022-10-23T21:56:46.376Z,2.28
2022-10-23T21:59:14.985Z,4.07
2022-10-23T22:01:44.133Z,4.10
2022-10-23T22:04:14.194Z,5.15
2022-10-23T22:06:42.224Z,7.45
2022-10-23T22:09:11.142Z,4.20
2022-10-23T22:11:37.929Z,5.80
2022-10-23T22:14:04.655Z,4.22
2022-10-23T22:16:31.538Z,4.85
2022-10-23T22:18:58.242Z,3.40
2022-10-23T22:21:27.433Z,6.03
2022-10-23T22:23:55.919Z,5.68
2022-10-23T22:26:28.029Z,4.53
2022-10-23T22:28:57.400Z,6.20
2022-10-23T22:31:26.916Z,4.55
2022-10-23T22:33:53.748Z,4.88
2022-10-23T22:36:20.801Z,5.70
2022-10-23T22:38:47.698Z,4.35
2022-10-23T22:41:14.993Z,7.75
2022-10-23T22:43:42.084Z,4.90
2022-10-23T22:46:11.729Z,4.18
2022-10-23T22:48:41.443Z,5.10
2022-10-23T22:51:12.256Z,6.35
2022-10-23T22:53:39.027Z,4.68
2022-10-23T22:56:07.445Z,4.85
2022-10-23T22:58:34.823Z,3.78
2022-10-23T23:01:09.574Z,3.80
2022-10-23T23:03:37.297Z,6.00
2022-10-23T23:06:05.837Z,4.15
2022-10-23T23:08:33.635Z,6.70
2022-10-23T23:11:01.099Z,4.00
2022-10-23T23:13:28.335Z,5.20
2022-10-23T23:15:55.997Z,3.63
2022-10-23T23:18:23.466Z,3.75
2022-10-23T23:20:50.546Z,5.00
2022-10-23T23:23:17.743Z,4.82
2022-10-23T23:25:47.466Z,4.70
2022-10-23T23:28:16.578Z,6.15
2022-10-23T23:30:43.847Z,4.20
2022-10-23T23:33:12.176Z,4.43
2022-10-23T23:35:47.025Z,3.35
2022-10-23T23:38:14.081Z,4.72
2022-10-23T23:40:40.828Z,4.55
2022-10-23T23:43:07.557Z,5.53
2022-10-23T23:45:34.337Z,5.68
2022-10-23T23:48:01.068Z,6.78
2022-10-23T23:50:28.164Z,4.57
2022-10-23T23:52:55.136Z,5.68
2022-10-23T23:55:21.934Z,4.50
2022-10-23T23:57:48.683Z,6.63
